sensor_id;sensor_type;location;lat;lon;timestamp;P1;durP1;ratioP1;P2;durP2;ratioP2
21800;SDS011;11062;51.164;16.924;2023-12-14T00:00:17;57.85;;;31.33;;
21800;SDS011;11062;51.164;16.924;2023-12-14T00:02:49;60.47;;;32.80;;
21800;SDS011;11062;51.164;16.924;2023-12-14T00:06:25;63.22;;;32.03;;
21800;SDS011;11062;51.164;16.924;2023-12-14T00:09:36;68.13;;;33.38;;
21800;SDS011;11062;51.164;16.924;2023-12-14T00:13:02;63.22;;;31.13;;
21800;SDS011;11062;51.164;16.924;2023-12-14T00:15:56;60.25;;;31.52;;
21800;SDS011;11062;51.164;16.924;2023-12-14T00:18:28;65.55;;;31.88;;
21800;SDS011;11062;51.164;16.924;2023-12-14T00:21:20;71.63;;;33.38;;
21800;SDS011;11062;51.164;16.924;2023-12-14T00:24:06;73.00;;;32.83;;
21800;SDS011;11062;51.164;16.924;2023-12-14T00:26:32;75.15;;;31.90;;
21800;SDS011;11062;51.164;16.924;2023-12-14T00:28:59;81.30;;;34.40;;
21800;SDS011;11062;51.164;16.924;2023-12-14T00:31:37;71.30;;;32.50;;
21800;SDS011;11062;51.164;16.924;2023-12-14T00:34:11;76.47;;;34.13;;
21800;SDS011;11062;51.164;16.924;2023-12-14T00:36:45;79.35;;;32.97;;
21800;SDS011;11062;51.164;16.924;2023-12-14T00:39:37;77.65;;;32.20;;
21800;SDS011;11062;51.164;16.924;2023-12-14T00:42:06;77.57;;;33.88;;
21800;SDS011;11062;51.164;16.924;2023-12-14T00:44:54;87.88;;;32.88;;
21800;SDS011;11062;51.164;16.924;2023-12-14T00:47:20;77.70;;;30.33;;
21800;SDS011;11062;51.164;16.924;2023-12-14T00:49:49;75.68;;;31.63;;
21800;SDS011;11062;51.164;16.924;2023-12-14T00:52:14;68.25;;;30.33;;
21800;SDS011;11062;51.164;16.924;2023-12-14T00:54:43;78.85;;;32.28;;
21800;SDS011;11062;51.164;16.924;2023-12-14T00:57:09;75.13;;;30.42;;
21800;SDS011;11062;51.164;16.924;2023-12-14T00:59:35;75.97;;;31.73;;
21800;SDS011;11062;51.164;16.924;2023-12-14T01:02:01;77.55;;;31.80;;
21800;SDS011;11062;51.164;16.924;2023-12-14T01:04:27;66.43;;;31.02;;
21800;SDS011;11062;51.164;16.924;2023-12-14T01:06:53;64.25;;;30.52;;
21800;SDS011;11062;51.164;16.924;2023-12-14T01:09:21;80.88;;;32.10;;
21800;SDS011;11062;51.164;16.924;2023-12-14T01:11:47;88.20;;;32.28;;
21800;SDS011;11062;51.164;16.924;2023-12-14T01:14:13;83.25;;;32.20;;
21800;SDS011;11062;51.164;16.924;2023-12-14T01:16:39;78.85;;;32.63;;
21800;SDS011;11062;51.164;16.924;2023-12-14T01:19:05;74.03;;;31.70;;
21800;SDS011;11062;51.164;16.924;2023-12-14T01:21:31;82.15;;;31.60;;
21800;SDS011;11062;51.164;16.924;2023-12-14T01:23:58;78.40;;;32.13;;
21800;SDS011;11062;51.164;16.924;2023-12-14T01:26:25;60.03;;;29.92;;
21800;SDS011;11062;51.164;16.924;2023-12-14T01:29:00;53.15;;;28.52;;
21800;SDS011;11062;51.164;16.924;2023-12-14T01:31:41;55.90;;;30.02;;
21800;SDS011;11062;51.164;16.924;2023-12-14T01:34:25;58.20;;;29.75;;
21800;SDS011;11062;51.164;16.924;2023-12-14T01:37:07;57.03;;;29.38;;
21800;SDS011;11062;51.164;16.924;2023-12-14T01:39:45;64.32;;;30.40;;
21800;SDS011;11062;51.164;16.924;2023-12-14T01:45:58;58.22;;;31.60;;
21800;SDS011;11062;51.164;16.924;2023-12-14T01:48:23;58.15;;;31.20;;
21800;SDS011;11062;51.164;16.924;2023-12-14T01:50:49;58.13;;;30.00;;
21800;SDS011;11062;51.164;16.924;2023-12-14T01:53:15;67.43;;;32.42;;
21800;SDS011;11062;51.164;16.924;2023-12-14T01:55:41;68.35;;;32.33;;
21800;SDS011;11062;51.164;16.924;2023-12-14T01:58:06;67.82;;;31.60;;
21800;SDS011;11062;51.164;16.924;2023-12-14T02:03:04;73.88;;;33.13;;
21800;SDS011;11062;51.164;16.924;2023-12-14T02:05:29;62.80;;;31.98;;
21800;SDS011;11062;51.164;16.924;2023-12-14T02:07:55;58.90;;;31.35;;
21800;SDS011;11062;51.164;16.924;2023-12-14T02:10:23;67.35;;;33.80;;
21800;SDS011;11062;51.164;16.924;2023-12-14T02:13:32;66.10;;;31.08;;
21800;SDS011;11062;51.164;16.924;2023-12-14T02:16:06;63.75;;;31.85;;
21800;SDS011;11062;51.164;16.924;2023-12-14T02:19:18;62.38;;;32.45;;
21800;SDS011;11062;51.164;16.924;2023-12-14T02:22:58;65.22;;;33.85;;
21800;SDS011;11062;51.164;16.924;2023-12-14T02:25:54;64.60;;;33.88;;
21800;SDS011;11062;51.164;16.924;2023-12-14T02:28:47;71.43;;;35.20;;
21800;SDS011;11062;51.164;16.924;2023-12-14T02:31:19;70.35;;;33.10;;
21800;SDS011;11062;51.164;16.924;2023-12-14T02:35:04;68.22;;;33.38;;
21800;SDS011;11062;51.164;16.924;2023-12-14T02:37:52;65.82;;;31.10;;
21800;SDS011;11062;51.164;16.924;2023-12-14T02:40:29;66.38;;;34.08;;
21800;SDS011;11062;51.164;16.924;2023-12-14T02:43:10;64.75;;;33.28;;
21800;SDS011;11062;51.164;16.924;2023-12-14T02:46:45;63.65;;;33.15;;
21800;SDS011;11062;51.164;16.924;2023-12-14T02:49:11;72.43;;;33.58;;
21800;SDS011;11062;51.164;16.924;2023-12-14T02:51:37;67.00;;;33.70;;
21800;SDS011;11062;51.164;16.924;2023-12-14T02:54:03;74.00;;;32.92;;
21800;SDS011;11062;51.164;16.924;2023-12-14T02:56:29;65.63;;;33.72;;
21800;SDS011;11062;51.164;16.924;2023-12-14T02:58:54;67.32;;;33.25;;
21800;SDS011;11062;51.164;16.924;2023-12-14T03:01:20;68.75;;;32.95;;
21800;SDS011;11062;51.164;16.924;2023-12-14T03:03:46;69.15;;;33.75;;
21800;SDS011;11062;51.164;16.924;2023-12-14T03:06:15;65.32;;;32.70;;
21800;SDS011;11062;51.164;16.924;2023-12-14T03:08:41;68.97;;;32.22;;
21800;SDS011;11062;51.164;16.924;2023-12-14T03:11:07;65.93;;;32.58;;
21800;SDS011;11062;51.164;16.924;2023-12-14T03:13:33;64.60;;;31.88;;
21800;SDS011;11062;51.164;16.924;2023-12-14T03:16:46;67.00;;;31.52;;
21800;SDS011;11062;51.164;16.924;2023-12-14T03:19:41;60.83;;;31.63;;
21800;SDS011;11062;51.164;16.924;2023-12-14T03:22:20;63.30;;;31.75;;
21800;SDS011;11062;51.164;16.924;2023-12-14T03:24:45;67.28;;;32.88;;
21800;SDS011;11062;51.164;16.924;2023-12-14T03:27:17;59.97;;;30.75;;
21800;SDS011;11062;51.164;16.924;2023-12-14T03:30:06;62.13;;;30.35;;
21800;SDS011;11062;51.164;16.924;2023-12-14T03:33:30;66.70;;;31.95;;
21800;SDS011;11062;51.164;16.924;2023-12-14T03:37:05;66.30;;;31.23;;
21800;SDS011;11062;51.164;16.924;2023-12-14T03:40:47;54.63;;;29.73;;
21800;SDS011;11062;51.164;16.924;2023-12-14T03:47:51;62.05;;;31.50;;
21800;SDS011;11062;51.164;16.924;2023-12-14T03:51:30;61.65;;;31.25;;
21800;SDS011;11062;51.164;16.924;2023-12-14T03:54:58;55.83;;;29.92;;
21800;SDS011;11062;51.164;16.924;2023-12-14T03:58:25;64.50;;;31.05;;
21800;SDS011;11062;51.164;16.924;2023-12-14T04:01:50;60.95;;;30.67;;
21800;SDS011;11062;51.164;16.924;2023-12-14T04:04:58;58.47;;;30.00;;
21800;SDS011;11062;51.164;16.924;2023-12-14T04:07:24;61.53;;;30.40;;
21800;SDS011;11062;51.164;16.924;2023-12-14T04:09:50;65.43;;;31.02;;
21800;SDS011;11062;51.164;16.924;2023-12-14T04:12:19;61.28;;;28.77;;
21800;SDS011;11062;51.164;16.924;2023-12-14T04:14:45;63.53;;;30.40;;
21800;SDS011;11062;51.164;16.924;2023-12-14T04:17:12;63.88;;;30.55;;
21800;SDS011;11062;51.164;16.924;2023-12-14T04:19:38;72.07;;;32.08;;
21800;SDS011;11062;51.164;16.924;2023-12-14T04:22:32;65.25;;;31.15;;
21800;SDS011;11062;51.164;16.924;2023-12-14T04:25:27;68.03;;;31.85;;
21800;SDS011;11062;51.164;16.924;2023-12-14T04:28:18;61.13;;;30.80;;
21800;SDS011;11062;51.164;16.924;2023-12-14T04:31:13;60.35;;;28.58;;
21800;SDS011;11062;51.164;16.924;2023-12-14T04:33:40;61.03;;;30.17;;
21800;SDS011;11062;51.164;16.924;2023-12-14T04:36:09;59.70;;;28.58;;
21800;SDS011;11062;51.164;16.924;2023-12-14T04:38:35;57.13;;;27.98;;
21800;SDS011;11062;51.164;16.924;2023-12-14T04:41:01;57.13;;;26.88;;
21800;SDS011;11062;51.164;16.924;2023-12-14T04:43:32;53.78;;;25.65;;
21800;SDS011;11062;51.164;16.924;2023-12-14T04:46:03;48.70;;;25.05;;
21800;SDS011;11062;51.164;16.924;2023-12-14T04:48:34;51.45;;;25.48;;
21800;SDS011;11062;51.164;16.924;2023-12-14T04:51:21;49.92;;;24.75;;
21800;SDS011;11062;51.164;16.924;2023-12-14T04:53:54;47.80;;;25.60;;
21800;SDS011;11062;51.164;16.924;2023-12-14T04:56:53;45.22;;;25.00;;
21800;SDS011;11062;51.164;16.924;2023-12-14T05:00:22;50.28;;;25.38;;
21800;SDS011;11062;51.164;16.924;2023-12-14T05:02:50;41.00;;;23.27;;
21800;SDS011;11062;51.164;16.924;2023-12-14T05:05:17;47.65;;;24.40;;
21800;SDS011;11062;51.164;16.924;2023-12-14T05:07:43;43.03;;;23.02;;
21800;SDS011;11062;51.164;16.924;2023-12-14T05:10:09;47.17;;;22.80;;
21800;SDS011;11062;51.164;16.924;2023-12-14T05:12:35;49.22;;;23.45;;
21800;SDS011;11062;51.164;16.924;2023-12-14T05:15:02;41.33;;;22.98;;
21800;SDS011;11062;51.164;16.924;2023-12-14T05:17:34;46.47;;;23.08;;
21800;SDS011;11062;51.164;16.924;2023-12-14T05:20:02;47.25;;;23.27;;
21800;SDS011;11062;51.164;16.924;2023-12-14T05:22:37;45.22;;;23.35;;
21800;SDS011;11062;51.164;16.924;2023-12-14T05:25:03;43.92;;;22.88;;
21800;SDS011;11062;51.164;16.924;2023-12-14T05:27:29;43.35;;;22.58;;
21800;SDS011;11062;51.164;16.924;2023-12-14T05:29:55;43.58;;;22.05;;
21800;SDS011;11062;51.164;16.924;2023-12-14T05:32:21;39.63;;;22.15;;
21800;SDS011;11062;51.164;16.924;2023-12-14T05:34:47;42.78;;;22.17;;
21800;SDS011;11062;51.164;16.924;2023-12-14T05:37:13;44.88;;;22.50;;
21800;SDS011;11062;51.164;16.924;2023-12-14T05:39:45;43.22;;;21.80;;
21800;SDS011;11062;51.164;16.924;2023-12-14T05:42:11;36.80;;;21.27;;
21800;SDS011;11062;51.164;16.924;2023-12-14T05:44:41;40.38;;;21.77;;
21800;SDS011;11062;51.164;16.924;2023-12-14T05:47:10;36.88;;;20.63;;
21800;SDS011;11062;51.164;16.924;2023-12-14T05:49:40;40.50;;;21.73;;
21800;SDS011;11062;51.164;16.924;2023-12-14T05:52:07;42.97;;;22.90;;
21800;SDS011;11062;51.164;16.924;2023-12-14T05:54:36;42.17;;;22.02;;
21800;SDS011;11062;51.164;16.924;2023-12-14T05:57:03;39.80;;;21.67;;
21800;SDS011;11062;51.164;16.924;2023-12-14T05:59:32;36.53;;;20.25;;
21800;SDS011;11062;51.164;16.924;2023-12-14T06:02:02;42.45;;;21.77;;
21800;SDS011;11062;51.164;16.924;2023-12-14T06:04:28;40.25;;;22.40;;
21800;SDS011;11062;51.164;16.924;2023-12-14T06:06:56;39.35;;;21.33;;
21800;SDS011;11062;51.164;16.924;2023-12-14T06:09:22;38.95;;;20.83;;
21800;SDS011;11062;51.164;16.924;2023-12-14T06:11:54;37.92;;;20.23;;
21800;SDS011;11062;51.164;16.924;2023-12-14T06:14:20;40.10;;;22.23;;
21800;SDS011;11062;51.164;16.924;2023-12-14T06:16:49;38.10;;;20.75;;
21800;SDS011;11062;51.164;16.924;2023-12-14T06:19:14;37.88;;;20.13;;
21800;SDS011;11062;51.164;16.924;2023-12-14T06:21:40;41.28;;;21.42;;
21800;SDS011;11062;51.164;16.924;2023-12-14T06:24:06;37.47;;;21.52;;
21800;SDS011;11062;51.164;16.924;2023-12-14T06:26:32;44.13;;;21.70;;
21800;SDS011;11062;51.164;16.924;2023-12-14T06:28:58;40.13;;;21.80;;
21800;SDS011;11062;51.164;16.924;2023-12-14T06:31:24;42.35;;;21.85;;
21800;SDS011;11062;51.164;16.924;2023-12-14T06:33:50;44.55;;;23.00;;
21800;SDS011;11062;51.164;16.924;2023-12-14T06:36:16;39.20;;;21.63;;
21800;SDS011;11062;51.164;16.924;2023-12-14T06:38:45;41.97;;;21.08;;
21800;SDS011;11062;51.164;16.924;2023-12-14T06:41:20;38.45;;;21.27;;
21800;SDS011;11062;51.164;16.924;2023-12-14T06:43:47;38.08;;;20.70;;
21800;SDS011;11062;51.164;16.924;2023-12-14T06:46:14;37.15;;;21.55;;
21800;SDS011;11062;51.164;16.924;2023-12-14T06:48:40;37.80;;;21.17;;
21800;SDS011;11062;51.164;16.924;2023-12-14T06:51:09;40.35;;;20.05;;
21800;SDS011;11062;51.164;16.924;2023-12-14T06:53:41;87.00;;;23.50;;
21800;SDS011;11062;51.164;16.924;2023-12-14T06:56:08;47.40;;;21.67;;
21800;SDS011;11062;51.164;16.924;2023-12-14T06:58:42;41.95;;;20.95;;
21800;SDS011;11062;51.164;16.924;2023-12-14T07:01:13;35.25;;;19.38;;
21800;SDS011;11062;51.164;16.924;2023-12-14T07:03:43;34.83;;;20.02;;
21800;SDS011;11062;51.164;16.924;2023-12-14T07:06:13;37.88;;;19.45;;
21800;SDS011;11062;51.164;16.924;2023-12-14T07:08:39;32.80;;;18.55;;
21800;SDS011;11062;51.164;16.924;2023-12-14T07:11:06;31.98;;;18.85;;
21800;SDS011;11062;51.164;16.924;2023-12-14T07:13:33;37.75;;;19.00;;
21800;SDS011;11062;51.164;16.924;2023-12-14T07:16:02;30.55;;;17.65;;
21800;SDS011;11062;51.164;16.924;2023-12-14T07:18:39;35.53;;;18.65;;
21800;SDS011;11062;51.164;16.924;2023-12-14T07:21:06;72.47;;;30.30;;
21800;SDS011;11062;51.164;16.924;2023-12-14T07:23:41;50.30;;;21.08;;
21800;SDS011;11062;51.164;16.924;2023-12-14T07:26:12;37.42;;;19.25;;
21800;SDS011;11062;51.164;16.924;2023-12-14T07:29:01;38.05;;;19.58;;
21800;SDS011;11062;51.164;16.924;2023-12-14T07:31:45;75.13;;;20.67;;
21800;SDS011;11062;51.164;16.924;2023-12-14T07:34:41;56.55;;;20.77;;
21800;SDS011;11062;51.164;16.924;2023-12-14T07:37:54;41.13;;;19.30;;
21800;SDS011;11062;51.164;16.924;2023-12-14T07:40:44;42.35;;;20.95;;
21800;SDS011;11062;51.164;16.924;2023-12-14T08:20:56;43.03;;;22.17;;
21800;SDS011;11062;51.164;16.924;2023-12-14T08:24:39;43.67;;;21.60;;
21800;SDS011;11062;51.164;16.924;2023-12-14T08:28:15;42.65;;;21.50;;
21800;SDS011;11062;51.164;16.924;2023-12-14T08:31:45;41.75;;;21.00;;
21800;SDS011;11062;51.164;16.924;2023-12-14T08:34:41;41.60;;;21.35;;
21800;SDS011;11062;51.164;16.924;2023-12-14T08:37:47;46.60;;;20.85;;
21800;SDS011;11062;51.164;16.924;2023-12-14T08:41:14;50.00;;;21.13;;
21800;SDS011;11062;51.164;16.924;2023-12-14T08:44:46;46.28;;;21.50;;
21800;SDS011;11062;51.164;16.924;2023-12-14T08:48:18;39.25;;;20.05;;
21800;SDS011;11062;51.164;16.924;2023-12-14T08:52:01;36.83;;;19.15;;
21800;SDS011;11062;51.164;16.924;2023-12-14T08:55:13;44.75;;;21.13;;
21800;SDS011;11062;51.164;16.924;2023-12-14T08:58:29;37.17;;;19.30;;
21800;SDS011;11062;51.164;16.924;2023-12-14T09:04:25;35.00;;;17.98;;
21800;SDS011;11062;51.164;16.924;2023-12-14T09:06:53;69.45;;;19.88;;
21800;SDS011;11062;51.164;16.924;2023-12-14T09:09:19;46.90;;;17.48;;
21800;SDS011;11062;51.164;16.924;2023-12-14T09:11:45;40.70;;;18.10;;
21800;SDS011;11062;51.164;16.924;2023-12-14T09:14:11;55.90;;;18.23;;
21800;SDS011;11062;51.164;16.924;2023-12-14T09:16:39;33.08;;;17.48;;
21800;SDS011;11062;51.164;16.924;2023-12-14T09:19:05;31.98;;;16.30;;
21800;SDS011;11062;51.164;16.924;2023-12-14T09:21:31;31.20;;;17.00;;
21800;SDS011;11062;51.164;16.924;2023-12-14T09:24:00;32.22;;;17.30;;
21800;SDS011;11062;51.164;16.924;2023-12-14T09:26:26;28.92;;;16.40;;
21800;SDS011;11062;51.164;16.924;2023-12-14T09:28:52;28.65;;;16.55;;
21800;SDS011;11062;51.164;16.924;2023-12-14T09:31:18;30.90;;;16.77;;
21800;SDS011;11062;51.164;16.924;2023-12-14T09:33:44;32.70;;;17.13;;
21800;SDS011;11062;51.164;16.924;2023-12-14T09:36:12;29.65;;;16.10;;
21800;SDS011;11062;51.164;16.924;2023-12-14T09:38:40;27.98;;;15.55;;
21800;SDS011;11062;51.164;16.924;2023-12-14T09:41:06;28.30;;;15.52;;
21800;SDS011;11062;51.164;16.924;2023-12-14T09:43:34;24.60;;;14.80;;
21800;SDS011;11062;51.164;16.924;2023-12-14T09:46:05;32.40;;;16.42;;
21800;SDS011;11062;51.164;16.924;2023-12-14T09:48:31;28.35;;;15.43;;
21800;SDS011;11062;51.164;16.924;2023-12-14T09:50:58;26.52;;;15.35;;
21800;SDS011;11062;51.164;16.924;2023-12-14T09:53:24;24.63;;;14.52;;
21800;SDS011;11062;51.164;16.924;2023-12-14T09:55:50;24.92;;;15.15;;
21800;SDS011;11062;51.164;16.924;2023-12-14T09:58:19;24.13;;;15.63;;
21800;SDS011;11062;51.164;16.924;2023-12-14T10:00:47;31.98;;;16.05;;
21800;SDS011;11062;51.164;16.924;2023-12-14T10:03:24;35.92;;;18.80;;
21800;SDS011;11062;51.164;16.924;2023-12-14T10:05:54;26.23;;;16.20;;
21800;SDS011;11062;51.164;16.924;2023-12-14T10:08:21;32.65;;;17.23;;
21800;SDS011;11062;51.164;16.924;2023-12-14T10:10:49;26.77;;;16.55;;
21800;SDS011;11062;51.164;16.924;2023-12-14T10:13:22;24.60;;;15.63;;
21800;SDS011;11062;51.164;16.924;2023-12-14T11:00:03;21.02;;;12.95;;
21800;SDS011;11062;51.164;16.924;2023-12-14T11:21:47;68.65;;;33.55;;
21800;SDS011;11062;51.164;16.924;2023-12-14T11:24:13;29.90;;;16.50;;
21800;SDS011;11062;51.164;16.924;2023-12-14T11:26:42;25.80;;;14.40;;
21800;SDS011;11062;51.164;16.924;2023-12-14T11:29:08;26.35;;;15.60;;
21800;SDS011;11062;51.164;16.924;2023-12-14T11:31:35;23.27;;;13.73;;
21800;SDS011;11062;51.164;16.924;2023-12-14T11:34:03;28.60;;;16.33;;
21800;SDS011;11062;51.164;16.924;2023-12-14T11:36:35;29.95;;;15.70;;
21800;SDS011;11062;51.164;16.924;2023-12-14T11:39:04;26.85;;;15.55;;
21800;SDS011;11062;51.164;16.924;2023-12-14T11:41:31;28.77;;;16.00;;
21800;SDS011;11062;51.164;16.924;2023-12-14T11:43:59;26.13;;;14.68;;
21800;SDS011;11062;51.164;16.924;2023-12-14T11:46:28;26.52;;;15.55;;
21800;SDS011;11062;51.164;16.924;2023-12-14T11:48:58;25.23;;;13.48;;
21800;SDS011;11062;51.164;16.924;2023-12-14T11:51:26;24.52;;;14.30;;
21800;SDS011;11062;51.164;16.924;2023-12-14T11:53:55;24.05;;;14.65;;
21800;SDS011;11062;51.164;16.924;2023-12-14T11:56:23;24.25;;;14.82;;
21800;SDS011;11062;51.164;16.924;2023-12-14T11:58:52;22.35;;;13.48;;
21800;SDS011;11062;51.164;16.924;2023-12-14T12:01:22;23.92;;;14.13;;
21800;SDS011;11062;51.164;16.924;2023-12-14T12:03:52;25.23;;;14.85;;
21800;SDS011;11062;51.164;16.924;2023-12-14T12:06:25;19.77;;;12.25;;
21800;SDS011;11062;51.164;16.924;2023-12-14T12:08:58;24.80;;;14.57;;
21800;SDS011;11062;51.164;16.924;2023-12-14T12:11:32;25.80;;;14.18;;
21800;SDS011;11062;51.164;16.924;2023-12-14T12:14:01;26.90;;;14.02;;
21800;SDS011;11062;51.164;16.924;2023-12-14T12:16:27;28.70;;;13.77;;
21800;SDS011;11062;51.164;16.924;2023-12-14T12:18:53;22.30;;;12.77;;
21800;SDS011;11062;51.164;16.924;2023-12-14T12:21:19;25.98;;;13.63;;
21800;SDS011;11062;51.164;16.924;2023-12-14T12:23:50;22.67;;;12.93;;
21800;SDS011;11062;51.164;16.924;2023-12-14T12:26:24;22.33;;;13.40;;
21800;SDS011;11062;51.164;16.924;2023-12-14T12:28:50;20.50;;;13.07;;
21800;SDS011;11062;51.164;16.924;2023-12-14T12:31:19;19.92;;;12.85;;
21800;SDS011;11062;51.164;16.924;2023-12-14T12:33:48;23.00;;;13.15;;
21800;SDS011;11062;51.164;16.924;2023-12-14T12:36:14;18.02;;;11.38;;
21800;SDS011;11062;51.164;16.924;2023-12-14T12:38:43;19.15;;;11.07;;
21800;SDS011;11062;51.164;16.924;2023-12-14T12:41:09;16.85;;;10.07;;
21800;SDS011;11062;51.164;16.924;2023-12-14T12:43:34;15.75;;;9.52;;
21800;SDS011;11062;51.164;16.924;2023-12-14T12:46:01;14.95;;;9.68;;
21800;SDS011;11062;51.164;16.924;2023-12-14T12:48:28;13.27;;;8.95;;
21800;SDS011;11062;51.164;16.924;2023-12-14T12:50:54;13.52;;;8.55;;
21800;SDS011;11062;51.164;16.924;2023-12-14T15:01:44;24.23;;;13.90;;
21800;SDS011;11062;51.164;16.924;2023-12-14T15:04:11;23.98;;;13.75;;
21800;SDS011;11062;51.164;16.924;2023-12-14T15:06:37;26.08;;;15.75;;
21800;SDS011;11062;51.164;16.924;2023-12-14T15:09:04;25.52;;;14.43;;
21800;SDS011;11062;51.164;16.924;2023-12-14T15:11:32;24.10;;;13.68;;
21800;SDS011;11062;51.164;16.924;2023-12-14T15:13:59;26.20;;;14.27;;
21800;SDS011;11062;51.164;16.924;2023-12-14T15:16:27;25.60;;;14.13;;
21800;SDS011;11062;51.164;16.924;2023-12-14T15:18:53;29.80;;;14.77;;
21800;SDS011;11062;51.164;16.924;2023-12-14T15:21:19;24.13;;;14.27;;
21800;SDS011;11062;51.164;16.924;2023-12-14T15:23:45;24.15;;;14.10;;
21800;SDS011;11062;51.164;16.924;2023-12-14T15:26:13;25.23;;;15.07;;
21800;SDS011;11062;51.164;16.924;2023-12-14T15:28:49;25.63;;;14.88;;
21800;SDS011;11062;51.164;16.924;2023-12-14T15:31:14;25.67;;;15.20;;
21800;SDS011;11062;51.164;16.924;2023-12-14T15:33:40;28.38;;;15.85;;
21800;SDS011;11062;51.164;16.924;2023-12-14T15:36:06;25.63;;;16.23;;
21800;SDS011;11062;51.164;16.924;2023-12-14T15:38:35;24.98;;;15.90;;
21800;SDS011;11062;51.164;16.924;2023-12-14T15:41:01;23.40;;;14.23;;
21800;SDS011;11062;51.164;16.924;2023-12-14T15:43:30;21.38;;;13.63;;
21800;SDS011;11062;51.164;16.924;2023-12-14T15:46:02;22.83;;;14.55;;
21800;SDS011;11062;51.164;16.924;2023-12-14T15:48:28;23.45;;;14.02;;
21800;SDS011;11062;51.164;16.924;2023-12-14T15:51:04;23.00;;;14.43;;
21800;SDS011;11062;51.164;16.924;2023-12-14T15:53:31;24.27;;;14.25;;
21800;SDS011;11062;51.164;16.924;2023-12-14T15:55:57;24.13;;;14.60;;
21800;SDS011;11062;51.164;16.924;2023-12-14T15:58:23;21.52;;;13.57;;
21800;SDS011;11062;51.164;16.924;2023-12-14T16:00:54;23.65;;;13.23;;
21800;SDS011;11062;51.164;16.924;2023-12-14T16:03:23;24.83;;;12.40;;
21800;SDS011;11062;51.164;16.924;2023-12-14T16:05:52;21.50;;;12.30;;
21800;SDS011;11062;51.164;16.924;2023-12-14T16:08:20;22.10;;;13.23;;
21800;SDS011;11062;51.164;16.924;2023-12-14T16:10:49;17.30;;;11.40;;
21800;SDS011;11062;51.164;16.924;2023-12-14T16:13:18;14.18;;;9.88;;
21800;SDS011;11062;51.164;16.924;2023-12-14T16:15:44;17.90;;;10.88;;
21800;SDS011;11062;51.164;16.924;2023-12-14T16:18:13;19.08;;;10.93;;
21800;SDS011;11062;51.164;16.924;2023-12-14T16:20:39;19.27;;;11.25;;
21800;SDS011;11062;51.164;16.924;2023-12-14T16:23:05;18.85;;;11.27;;
21800;SDS011;11062;51.164;16.924;2023-12-14T16:25:31;16.50;;;10.43;;
21800;SDS011;11062;51.164;16.924;2023-12-14T16:27:59;21.92;;;12.07;;
21800;SDS011;11062;51.164;16.924;2023-12-14T16:30:30;23.15;;;13.25;;
21800;SDS011;11062;51.164;16.924;2023-12-14T16:32:56;18.92;;;11.52;;
21800;SDS011;11062;51.164;16.924;2023-12-14T17:20:32;35.92;;;20.98;;
21800;SDS011;11062;51.164;16.924;2023-12-14T17:23:02;40.42;;;23.02;;
21800;SDS011;11062;51.164;16.924;2023-12-14T17:25:29;41.83;;;24.13;;
21800;SDS011;11062;51.164;16.924;2023-12-14T17:27:55;40.30;;;23.40;;
21800;SDS011;11062;51.164;16.924;2023-12-14T17:30:24;37.55;;;22.58;;
21800;SDS011;11062;51.164;16.924;2023-12-14T17:32:52;41.47;;;24.75;;
21800;SDS011;11062;51.164;16.924;2023-12-14T17:35:18;38.17;;;23.90;;
21800;SDS011;11062;51.164;16.924;2023-12-14T17:37:45;36.65;;;22.73;;
21800;SDS011;11062;51.164;16.924;2023-12-14T17:40:11;37.25;;;23.10;;
21800;SDS011;11062;51.164;16.924;2023-12-14T17:42:37;39.90;;;24.52;;
21800;SDS011;11062;51.164;16.924;2023-12-14T17:45:04;38.25;;;21.60;;
21800;SDS011;11062;51.164;16.924;2023-12-14T17:47:35;31.85;;;21.38;;
21800;SDS011;11062;51.164;16.924;2023-12-14T17:50:01;34.15;;;19.83;;
21800;SDS011;11062;51.164;16.924;2023-12-14T17:52:28;35.38;;;21.17;;
21800;SDS011;11062;51.164;16.924;2023-12-14T17:54:54;33.40;;;19.40;;
21800;SDS011;11062;51.164;16.924;2023-12-14T17:57:20;31.00;;;19.67;;
21800;SDS011;11062;51.164;16.924;2023-12-14T17:59:48;29.60;;;17.60;;
21800;SDS011;11062;51.164;16.924;2023-12-14T18:02:17;25.70;;;17.35;;
21800;SDS011;11062;51.164;16.924;2023-12-14T18:04:43;28.40;;;17.27;;
21800;SDS011;11062;51.164;16.924;2023-12-14T18:07:09;33.13;;;18.13;;
21800;SDS011;11062;51.164;16.924;2023-12-14T18:09:35;27.35;;;16.52;;
21800;SDS011;11062;51.164;16.924;2023-12-14T18:12:00;29.40;;;17.77;;
21800;SDS011;11062;51.164;16.924;2023-12-14T18:14:27;28.33;;;17.65;;
21800;SDS011;11062;51.164;16.924;2023-12-14T18:16:53;29.45;;;17.52;;
21800;SDS011;11062;51.164;16.924;2023-12-14T18:19:19;25.45;;;17.30;;
21800;SDS011;11062;51.164;16.924;2023-12-14T18:21:44;31.98;;;18.65;;
21800;SDS011;11062;51.164;16.924;2023-12-14T18:24:11;26.35;;;17.80;;
21800;SDS011;11062;51.164;16.924;2023-12-14T18:26:37;31.58;;;17.88;;
21800;SDS011;11062;51.164;16.924;2023-12-14T18:29:06;33.60;;;18.40;;
21800;SDS011;11062;51.164;16.924;2023-12-14T18:31:32;30.15;;;18.65;;
21800;SDS011;11062;51.164;16.924;2023-12-14T18:33:58;31.25;;;18.98;;
21800;SDS011;11062;51.164;16.924;2023-12-14T18:36:25;39.33;;;21.25;;
21800;SDS011;11062;51.164;16.924;2023-12-14T18:38:51;31.65;;;21.67;;
21800;SDS011;11062;51.164;16.924;2023-12-14T18:41:17;36.30;;;20.83;;
21800;SDS011;11062;51.164;16.924;2023-12-14T18:43:45;30.70;;;19.67;;
21800;SDS011;11062;51.164;16.924;2023-12-14T18:46:11;30.45;;;20.35;;
21800;SDS011;11062;51.164;16.924;2023-12-14T18:48:39;32.85;;;20.67;;
21800;SDS011;11062;51.164;16.924;2023-12-14T18:51:05;27.75;;;18.67;;
21800;SDS011;11062;51.164;16.924;2023-12-14T18:53:34;28.40;;;19.15;;
21800;SDS011;11062;51.164;16.924;2023-12-14T18:56:00;29.98;;;18.08;;
21800;SDS011;11062;51.164;16.924;2023-12-14T18:58:26;27.63;;;17.50;;
21800;SDS011;11062;51.164;16.924;2023-12-14T19:00:52;25.63;;;16.75;;
21800;SDS011;11062;51.164;16.924;2023-12-14T19:03:21;30.15;;;17.00;;
21800;SDS011;11062;51.164;16.924;2023-12-14T19:05:47;27.48;;;16.65;;
21800;SDS011;11062;51.164;16.924;2023-12-14T19:08:13;27.92;;;16.92;;
21800;SDS011;11062;51.164;16.924;2023-12-14T19:10:41;26.40;;;16.88;;
21800;SDS011;11062;51.164;16.924;2023-12-14T19:13:07;24.70;;;15.25;;
21800;SDS011;11062;51.164;16.924;2023-12-14T19:15:36;22.90;;;14.07;;
21800;SDS011;11062;51.164;16.924;2023-12-14T19:18:07;23.92;;;14.35;;
21800;SDS011;11062;51.164;16.924;2023-12-14T19:20:33;21.63;;;13.95;;
21800;SDS011;11062;51.164;16.924;2023-12-14T19:23:02;21.83;;;13.32;;
21800;SDS011;11062;51.164;16.924;2023-12-14T19:25:31;25.27;;;15.15;;
21800;SDS011;11062;51.164;16.924;2023-12-14T19:27:57;20.55;;;12.55;;
21800;SDS011;11062;51.164;16.924;2023-12-14T19:30:23;23.30;;;12.52;;
21800;SDS011;11062;51.164;16.924;2023-12-14T19:32:54;24.08;;;14.20;;
21800;SDS011;11062;51.164;16.924;2023-12-14T19:35:20;24.25;;;14.15;;
21800;SDS011;11062;51.164;16.924;2023-12-14T19:37:47;20.50;;;13.32;;